createdAt,value
2018-12-15T00:01:23.446Z,76.86
2018-12-15T00:03:51.716Z,77.45
2018-12-15T00:06:19.982Z,76.96
2018-12-15T00:08:48.225Z,76.31
2018-12-15T00:11:16.507Z,75.96
2018-12-15T00:13:44.848Z,76.80
2018-12-15T00:16:13.153Z,76.85
2018-12-15T00:18:41.420Z,76.90
2018-12-15T00:21:09.675Z,77.07
2018-12-15T00:23:37.920Z,76.88
2018-12-15T00:26:06.175Z,77.25
2018-12-15T00:28:34.441Z,77.07
2018-12-15T00:31:02.707Z,77.11
2018-12-15T00:33:30.960Z,76.55
2018-12-15T00:35:59.278Z,76.67
2018-12-15T00:38:27.536Z,77.79
2018-12-15T00:40:55.781Z,77.49
2018-12-15T00:43:24.049Z,77.87
2018-12-15T00:45:52.318Z,77.22
2018-12-15T00:48:20.573Z,76.82
2018-12-15T00:50:48.847Z,76.94
2018-12-15T00:53:17.101Z,77.54
2018-12-15T00:55:45.353Z,77.06
2018-12-15T00:58:14.393Z,78.64
2018-12-15T01:00:42.964Z,78.11
2018-12-15T01:03:11.221Z,78.10
2018-12-15T01:05:39.492Z,77.70
2018-12-15T01:08:07.782Z,77.75
2018-12-15T01:10:36.038Z,77.79
2018-12-15T01:13:04.310Z,78.12
2018-12-15T01:15:38.224Z,77.00
2018-12-15T01:18:06.476Z,77.86
2018-12-15T01:20:34.747Z,78.48
2018-12-15T01:23:02.999Z,78.74
2018-12-15T01:25:31.263Z,77.25
2018-12-15T01:27:59.585Z,76.95
2018-12-15T01:30:27.824Z,76.83
2018-12-15T01:32:56.088Z,77.40
2018-12-15T01:35:24.340Z,76.58
2018-12-15T01:37:52.604Z,76.54
2018-12-15T01:40:20.857Z,77.44
2018-12-15T01:42:49.125Z,76.58
2018-12-15T01:45:17.387Z,76.46
2018-12-15T01:47:45.636Z,76.89
2018-12-15T01:50:13.914Z,77.97
2018-12-15T01:52:42.177Z,76.97
2018-12-15T01:55:10.454Z,78.05
2018-12-15T01:57:38.692Z,76.83
2018-12-15T02:00:07.771Z,76.55
2018-12-15T02:02:36.136Z,76.53
2018-12-15T02:05:05.000Z,76.78
2018-12-15T02:07:33.348Z,77.78
2018-12-15T02:10:01.644Z,76.41
2018-12-15T02:12:29.888Z,76.13
2018-12-15T02:17:39.681Z,77.25
2018-12-15T02:20:08.012Z,78.22
2018-12-15T02:22:36.327Z,77.44
2018-12-15T02:25:04.740Z,78.24
2018-12-15T02:27:33.003Z,78.48
2018-12-15T02:30:01.283Z,77.57
2018-12-15T02:32:29.541Z,77.02
2018-12-15T02:34:57.917Z,78.27
2018-12-15T02:37:26.180Z,77.46
2018-12-15T02:39:54.451Z,76.81
2018-12-15T02:42:22.731Z,77.71
2018-12-15T02:44:51.021Z,76.84
2018-12-15T02:47:19.300Z,77.27
2018-12-15T02:49:47.560Z,78.01
2018-12-15T02:52:15.821Z,79.02
2018-12-15T02:54:44.097Z,77.78
2018-12-15T02:57:12.355Z,77.42
2018-12-15T02:59:40.633Z,77.35
2018-12-15T03:02:08.881Z,77.32
2018-12-15T03:04:37.142Z,76.19
2018-12-15T03:07:05.423Z,76.72
2018-12-15T03:09:33.680Z,77.76
2018-12-15T03:12:01.932Z,77.36
2018-12-15T03:14:30.213Z,77.71
2018-12-15T03:17:05.219Z,78.16
2018-12-15T03:19:33.485Z,78.40
2018-12-15T03:22:01.739Z,78.84
2018-12-15T03:24:30.013Z,78.03
2018-12-15T03:26:58.362Z,77.45
2018-12-15T03:29:26.672Z,78.75
2018-12-15T03:31:54.935Z,78.33
2018-12-15T03:34:23.260Z,77.50
2018-12-15T03:36:51.614Z,78.48
2018-12-15T03:39:19.934Z,78.15
2018-12-15T03:41:48.260Z,78.84
2018-12-15T03:44:16.532Z,78.67
2018-12-15T03:46:44.897Z,78.81
2018-12-15T03:49:13.176Z,79.22
2018-12-15T03:51:41.461Z,79.12
2018-12-15T03:54:09.744Z,78.96
2018-12-15T03:56:38.119Z,78.60
2018-12-15T03:59:06.384Z,78.79
2018-12-15T04:01:34.754Z,78.75
2018-12-15T04:04:03.033Z,78.75
2018-12-15T04:06:32.253Z,78.72
2018-12-15T04:09:00.536Z,79.06
2018-12-15T04:11:28.791Z,79.57
2018-12-15T04:13:57.056Z,78.65
2018-12-15T04:16:25.368Z,78.42
2018-12-15T04:18:53.647Z,79.26
2018-12-15T04:21:22.004Z,79.45
2018-12-15T04:23:50.277Z,79.23
2018-12-15T04:26:18.538Z,79.17
2018-12-15T04:28:46.816Z,78.62
2018-12-15T04:31:15.076Z,78.37
2018-12-15T04:33:43.424Z,78.70
2018-12-15T04:36:16.982Z,78.12
2018-12-15T04:38:45.888Z,78.77
2018-12-15T04:41:14.153Z,79.55
2018-12-15T04:43:42.439Z,79.00
2018-12-15T04:46:12.168Z,79.20
2018-12-15T04:48:40.419Z,78.74
2018-12-15T04:51:08.689Z,78.79
2018-12-15T04:53:36.953Z,78.92
2018-12-15T04:56:05.280Z,78.75
2018-12-15T04:58:33.542Z,78.52
2018-12-15T05:01:01.816Z,78.41
2018-12-15T05:03:30.094Z,78.42
2018-12-15T05:05:58.345Z,77.48
2018-12-15T05:08:26.614Z,78.09
2018-12-15T05:10:54.868Z,77.62
2018-12-15T05:13:23.146Z,78.40
2018-12-15T05:15:51.399Z,77.83
2018-12-15T05:18:19.652Z,78.91
2018-12-15T05:20:47.921Z,79.45
2018-12-15T05:23:16.241Z,78.73
2018-12-15T05:25:44.516Z,78.86
2018-12-15T05:28:12.781Z,78.83
2018-12-15T05:30:41.048Z,78.34
2018-12-15T05:33:09.302Z,78.01
2018-12-15T05:35:37.560Z,78.33
2018-12-15T05:38:05.841Z,77.39
2018-12-15T05:40:34.150Z,77.99
2018-12-15T05:43:02.431Z,77.95
2018-12-15T05:45:30.683Z,78.25
2018-12-15T05:47:58.974Z,77.91
2018-12-15T05:50:27.228Z,78.36
2018-12-15T05:52:55.536Z,77.40
2018-12-15T05:55:23.919Z,77.76
2018-12-15T05:57:52.173Z,76.98
2018-12-15T06:00:20.424Z,77.75
2018-12-15T06:02:48.756Z,77.56
2018-12-15T06:05:17.372Z,77.57
2018-12-15T06:07:45.910Z,78.20
2018-12-15T06:10:14.160Z,76.54
2018-12-15T06:12:42.454Z,77.93
2018-12-15T06:15:10.719Z,77.82
2018-12-15T06:17:38.975Z,79.06
2018-12-15T06:20:07.355Z,78.66
2018-12-15T06:22:35.614Z,77.54
2018-12-15T06:25:04.453Z,77.34
2018-12-15T06:27:32.733Z,78.17
2018-12-15T06:30:00.982Z,77.63
2018-12-15T06:32:29.252Z,77.51
2018-12-15T06:34:57.560Z,77.43
2018-12-15T06:37:25.827Z,76.94
2018-12-15T06:39:54.067Z,76.60
2018-12-15T06:42:22.337Z,77.02
2018-12-15T06:44:50.590Z,77.15
2018-12-15T06:47:19.139Z,77.95
2018-12-15T06:49:47.410Z,78.12
2018-12-15T06:52:15.673Z,77.37
2018-12-15T06:54:43.982Z,78.22
2018-12-15T06:57:12.252Z,77.10
2018-12-15T06:59:41.584Z,77.24
2018-12-15T07:02:09.844Z,78.40
2018-12-15T07:04:38.113Z,78.11
2018-12-15T07:07:06.371Z,77.00
2018-12-15T07:09:34.620Z,77.24
2018-12-15T07:12:02.893Z,77.72
2018-12-15T07:14:31.145Z,78.07
2018-12-15T07:16:59.487Z,78.03
2018-12-15T07:19:27.899Z,78.05
2018-12-15T07:21:56.253Z,77.44
2018-12-15T07:24:24.540Z,77.95
2018-12-15T07:26:52.804Z,78.19
2018-12-15T07:29:21.056Z,78.65
2018-12-15T07:31:49.337Z,77.60
2018-12-15T07:34:17.764Z,76.99
2018-12-15T07:36:46.022Z,77.50
2018-12-15T07:39:14.390Z,77.93
2018-12-15T07:41:42.663Z,78.29
2018-12-15T07:44:10.953Z,77.50
2018-12-15T07:46:39.215Z,78.31
2018-12-15T07:49:07.492Z,78.29
2018-12-15T07:51:35.776Z,78.36
2018-12-15T07:54:04.147Z,78.73
2018-12-15T07:56:32.423Z,78.10
2018-12-15T07:59:00.724Z,77.91
2018-12-15T08:01:28.965Z,78.18
2018-12-15T08:03:57.233Z,77.50
2018-12-15T08:06:25.492Z,77.54
2018-12-15T08:08:53.808Z,78.39
2018-12-15T08:11:27.639Z,78.64
2018-12-15T08:16:46.256Z,78.67
2018-12-15T08:19:14.530Z,78.12
2018-12-15T08:21:42.791Z,77.95
2018-12-15T08:24:11.052Z,77.30
2018-12-15T08:26:39.331Z,77.00
2018-12-15T08:29:07.600Z,77.42
2018-12-15T08:31:35.879Z,76.87
2018-12-15T08:34:04.437Z,76.99
2018-12-15T08:36:32.712Z,77.24
2018-12-15T08:39:00.985Z,76.63
2018-12-15T08:41:29.359Z,77.36
2018-12-15T08:43:57.619Z,76.80
2018-12-15T08:46:25.880Z,78.01
2018-12-15T08:48:54.171Z,77.98
2018-12-15T08:51:22.785Z,77.43
2018-12-15T08:53:51.049Z,77.46
2018-12-15T08:56:19.344Z,77.78
2018-12-15T08:58:47.603Z,78.22
2018-12-15T09:01:15.868Z,78.76
2018-12-15T09:03:44.173Z,77.31
2018-12-15T09:06:12.432Z,78.03
2018-12-15T09:08:40.719Z,77.69
2018-12-15T09:11:09.061Z,77.96
2018-12-15T09:13:37.361Z,77.91
2018-12-15T09:16:05.744Z,76.79
2018-12-15T09:18:34.080Z,77.68
2018-12-15T09:21:02.401Z,78.06
2018-12-15T09:23:30.657Z,77.03
2018-12-15T09:25:58.928Z,76.89
2018-12-15T09:28:27.197Z,76.18
2018-12-15T09:30:55.477Z,76.23
2018-12-15T09:33:23.746Z,76.98
2018-12-15T09:35:52.044Z,77.27
2018-12-15T09:38:20.433Z,77.68
2018-12-15T09:40:48.799Z,76.56
2018-12-15T09:43:17.192Z,77.16
2018-12-15T09:45:45.480Z,76.94
2018-12-15T09:48:13.740Z,77.79
2018-12-15T09:50:42.180Z,77.59
2018-12-15T09:53:10.494Z,77.89
2018-12-15T09:55:38.760Z,77.78
2018-12-15T09:58:07.160Z,77.65
2018-12-15T10:00:35.561Z,77.54
2018-12-15T10:03:03.820Z,77.63
2018-12-15T10:05:32.067Z,77.23
2018-12-15T10:08:00.365Z,76.99
2018-12-15T10:10:28.633Z,78.11
2018-12-15T10:12:56.900Z,78.22
2018-12-15T10:15:25.165Z,77.80
2018-12-15T10:17:53.556Z,76.78
2018-12-15T10:20:21.801Z,76.39
2018-12-15T10:22:50.128Z,77.37
2018-12-15T10:25:18.440Z,77.15
2018-12-15T10:27:46.788Z,77.72
2018-12-15T10:30:20.542Z,76.27
2018-12-15T10:32:52.004Z,76.12
2018-12-15T10:35:21.611Z,76.46
2018-12-15T10:37:49.878Z,76.53
2018-12-15T10:40:18.226Z,76.48
2018-12-15T10:42:46.468Z,77.23
2018-12-15T10:45:14.762Z,77.09
2018-12-15T10:47:43.038Z,77.49
2018-12-15T10:50:11.416Z,76.78
2018-12-15T10:52:39.688Z,78.07
2018-12-15T10:55:08.158Z,77.17
2018-12-15T10:57:36.472Z,77.17
2018-12-15T11:03:00.092Z,77.03
2018-12-15T11:05:28.417Z,77.01
2018-12-15T11:07:56.694Z,77.88
2018-12-15T11:10:24.961Z,78.36
2018-12-15T11:12:53.344Z,77.77
2018-12-15T11:15:21.600Z,77.69
2018-12-15T11:17:49.861Z,78.66
2018-12-15T11:20:18.184Z,78.35
2018-12-15T11:22:46.436Z,76.63
2018-12-15T11:25:14.758Z,76.84
2018-12-15T11:27:43.040Z,77.03
2018-12-15T11:30:11.403Z,76.08
2018-12-15T11:32:39.816Z,76.82
2018-12-15T11:35:08.293Z,76.29
2018-12-15T11:37:36.546Z,77.06
2018-12-15T11:40:06.996Z,76.78
2018-12-15T11:42:35.248Z,77.54
2018-12-15T11:45:04.233Z,77.34
2018-12-15T11:47:32.589Z,76.24
2018-12-15T11:50:00.889Z,76.88
2018-12-15T11:52:29.142Z,76.19
2018-12-15T11:54:57.406Z,75.39
2018-12-15T11:57:25.719Z,76.23
2018-12-15T11:59:53.990Z,75.32
2018-12-15T12:02:22.264Z,75.59
2018-12-15T12:04:50.541Z,75.58
2018-12-15T12:07:18.901Z,75.38
2018-12-15T12:09:47.212Z,76.19
2018-12-15T12:12:15.518Z,76.25
2018-12-15T12:14:43.849Z,76.20
2018-12-15T12:17:12.148Z,76.78
2018-12-15T12:19:40.422Z,76.79
2018-12-15T12:22:08.688Z,77.02
2018-12-15T12:24:37.029Z,76.99
2018-12-15T12:27:05.345Z,76.51
2018-12-15T12:29:33.640Z,75.96
2018-12-15T12:32:01.942Z,76.18
2018-12-15T12:34:30.251Z,76.78
2018-12-15T12:36:58.554Z,76.34
2018-12-15T12:39:26.873Z,76.07
2018-12-15T12:41:55.225Z,77.22
2018-12-15T12:44:23.560Z,76.60
2018-12-15T12:46:52.847Z,76.89
2018-12-15T12:49:21.169Z,77.10
2018-12-15T12:51:49.522Z,77.12
2018-12-15T12:54:17.805Z,77.23
2018-12-15T12:56:46.122Z,76.85
2018-12-15T12:59:14.418Z,77.01
2018-12-15T13:01:42.745Z,77.96
2018-12-15T13:04:11.044Z,78.08
2018-12-15T13:06:39.425Z,78.14
2018-12-15T13:09:07.887Z,78.37
2018-12-15T13:11:36.167Z,78.01
2018-12-15T13:14:04.488Z,78.28
2018-12-15T13:16:32.811Z,78.39
2018-12-15T13:19:01.071Z,78.24
2018-12-15T13:21:29.351Z,78.49
2018-12-15T13:23:57.622Z,78.89
2018-12-15T13:26:25.895Z,78.74
2018-12-15T13:28:54.234Z,78.50
2018-12-15T13:31:22.508Z,79.26
2018-12-15T13:33:50.775Z,79.18
2018-12-15T13:36:19.121Z,79.12
2018-12-15T13:38:47.806Z,79.10
2018-12-15T13:41:16.079Z,79.28
2018-12-15T13:43:44.336Z,79.08
2018-12-15T13:46:12.727Z,77.33
2018-12-15T13:48:41.022Z,78.82
2018-12-15T13:51:09.304Z,78.31
2018-12-15T13:53:37.694Z,78.21
2018-12-15T13:56:05.949Z,78.39
2018-12-15T13:58:34.251Z,78.10
2018-12-15T14:01:04.926Z,78.63
2018-12-15T14:03:33.192Z,77.24
2018-12-15T14:06:01.472Z,77.18
2018-12-15T14:08:29.789Z,77.58
2018-12-15T14:10:58.045Z,76.80
2018-12-15T14:13:26.312Z,76.86
2018-12-15T14:15:54.587Z,77.97
2018-12-15T14:18:22.889Z,77.45
2018-12-15T14:20:51.170Z,77.95
2018-12-15T14:23:19.425Z,78.33
2018-12-15T14:25:47.712Z,78.06
2018-12-15T14:28:16.019Z,77.78
2018-12-15T14:30:44.396Z,77.32
2018-12-15T14:33:12.761Z,77.76
2018-12-15T14:35:41.144Z,78.01
2018-12-15T14:38:09.416Z,78.02
2018-12-15T14:40:37.692Z,78.03
2018-12-15T14:43:05.953Z,78.30
2018-12-15T14:45:34.216Z,78.28
2018-12-15T14:48:02.516Z,77.93
2018-12-15T14:50:30.782Z,79.17
2018-12-15T14:52:59.064Z,78.77
2018-12-15T14:55:27.328Z,78.85
2018-12-15T14:57:55.632Z,77.88
2018-12-15T15:00:23.940Z,78.60
2018-12-15T15:02:52.389Z,78.50
2018-12-15T15:05:20.644Z,78.16
2018-12-15T15:07:48.934Z,78.61
2018-12-15T15:10:17.284Z,78.55
2018-12-15T15:12:45.563Z,78.85
2018-12-15T15:15:13.840Z,78.28
2018-12-15T15:17:42.156Z,78.22
2018-12-15T15:20:10.600Z,77.94
2018-12-15T15:22:38.906Z,77.33
2018-12-15T15:25:08.421Z,77.34
2018-12-15T15:27:36.684Z,77.25
2018-12-15T15:30:06.830Z,77.34
2018-12-15T15:32:35.182Z,77.41
2018-12-15T15:35:04.906Z,76.93
2018-12-15T15:37:33.274Z,77.13
2018-12-15T15:40:01.553Z,76.99
2018-12-15T15:42:29.843Z,78.04
2018-12-15T15:44:58.204Z,76.43
2018-12-15T15:47:26.489Z,77.60
2018-12-15T15:49:54.781Z,77.02
2018-12-15T15:52:23.136Z,76.75
2018-12-15T15:54:51.417Z,76.75
2018-12-15T15:57:19.678Z,77.14
2018-12-15T15:59:47.972Z,75.62
2018-12-15T16:02:16.274Z,76.61
2018-12-15T16:04:44.647Z,76.79
2018-12-15T16:07:13.001Z,76.39
2018-12-15T16:09:44.901Z,75.82
2018-12-15T16:12:11.528Z,76.27
2018-12-15T16:14:39.801Z,76.10
2018-12-15T16:17:08.116Z,76.36
2018-12-15T16:19:36.435Z,76.31
2018-12-15T16:22:04.702Z,76.31
2018-12-15T16:24:33.085Z,76.52
2018-12-15T16:27:01.372Z,75.46
2018-12-15T16:29:29.630Z,76.01
2018-12-15T16:31:57.880Z,76.29
2018-12-15T16:34:26.155Z,76.42
2018-12-15T16:36:54.472Z,76.80
2018-12-15T16:39:22.756Z,76.52
2018-12-15T16:41:51.028Z,76.29
2018-12-15T16:44:19.400Z,75.07
2018-12-15T16:46:47.661Z,75.28
2018-12-15T16:49:15.959Z,76.04
2018-12-15T16:51:44.335Z,76.10
2018-12-15T16:54:12.600Z,77.02
2018-12-15T16:56:40.927Z,76.05
2018-12-15T16:59:09.376Z,75.72
2018-12-15T17:01:37.637Z,76.24
2018-12-15T17:04:05.924Z,77.03
2018-12-15T17:06:34.233Z,75.96
2018-12-15T17:09:02.556Z,75.93
2018-12-15T17:11:30.807Z,75.60
2018-12-15T17:13:59.057Z,76.01
2018-12-15T17:16:27.384Z,75.48
2018-12-15T17:18:55.636Z,74.72
2018-12-15T17:21:23.884Z,75.57
2018-12-15T17:23:52.160Z,75.10
2018-12-15T17:26:20.906Z,75.21
2018-12-15T17:28:49.200Z,75.87
2018-12-15T17:31:17.469Z,76.02
2018-12-15T17:33:45.734Z,75.66
2018-12-15T17:36:14.037Z,75.72
2018-12-15T17:38:42.304Z,75.76
2018-12-15T17:41:10.628Z,76.00
2018-12-15T17:43:38.883Z,75.60
2018-12-15T17:46:07.154Z,76.04
2018-12-15T17:48:35.429Z,75.76
2018-12-15T17:51:04.212Z,76.21
2018-12-15T17:53:32.482Z,75.81
2018-12-15T17:56:00.753Z,75.67
2018-12-15T17:58:29.137Z,76.16
2018-12-15T18:00:57.447Z,75.88
2018-12-15T18:03:25.704Z,75.76
2018-12-15T18:05:54.052Z,76.51
2018-12-15T18:08:22.407Z,76.41
2018-12-15T18:10:50.652Z,76.49
2018-12-15T18:13:18.993Z,76.17
2018-12-15T18:15:47.238Z,75.98
2018-12-15T18:18:15.492Z,76.22
2018-12-15T18:20:43.759Z,75.94
2018-12-15T18:23:12.105Z,75.84
2018-12-15T18:25:40.488Z,76.65
2018-12-15T18:28:08.748Z,76.96
2018-12-15T18:30:37.005Z,76.98
2018-12-15T18:33:05.474Z,75.79
2018-12-15T18:35:33.853Z,76.67
2018-12-15T18:38:02.111Z,76.26
2018-12-15T18:40:30.406Z,77.22
2018-12-15T18:42:58.649Z,76.25
2018-12-15T18:45:26.910Z,76.15
2018-12-15T18:47:55.176Z,76.45
2018-12-15T18:50:23.461Z,77.21
2018-12-15T18:52:51.767Z,76.06
2018-12-15T18:55:20.012Z,76.73
2018-12-15T18:57:48.292Z,76.57
2018-12-15T19:00:16.589Z,76.73
2018-12-15T19:02:44.863Z,76.55
2018-12-15T19:05:13.347Z,77.07
2018-12-15T19:07:41.674Z,76.65
2018-12-15T19:10:10.246Z,77.00
2018-12-15T19:12:38.546Z,76.42
2018-12-15T19:15:08.496Z,77.74
2018-12-15T19:17:36.808Z,77.25
2018-12-15T19:20:05.640Z,77.27
2018-12-15T19:22:33.940Z,76.95
2018-12-15T19:25:02.200Z,77.28
2018-12-15T19:27:30.479Z,77.13
2018-12-15T19:29:58.853Z,77.27
2018-12-15T19:32:27.228Z,77.22
2018-12-15T19:34:55.497Z,77.02
2018-12-15T19:37:23.760Z,77.24
2018-12-15T19:39:52.037Z,77.27
2018-12-15T19:42:20.294Z,77.80
2018-12-15T19:44:48.546Z,78.04
2018-12-15T19:47:16.905Z,77.55
2018-12-15T19:49:45.156Z,78.18
2018-12-15T19:52:13.443Z,78.25
2018-12-15T19:54:41.729Z,77.78
2018-12-15T19:57:10.014Z,77.08
2018-12-15T19:59:38.312Z,76.60
2018-12-15T20:02:06.653Z,77.20
2018-12-15T20:04:34.912Z,77.53
2018-12-15T20:07:03.193Z,77.04
2018-12-15T20:09:31.482Z,78.01
2018-12-15T20:11:59.748Z,77.41
2018-12-15T20:14:28.053Z,77.97
2018-12-15T20:16:56.385Z,77.55
2018-12-15T20:19:24.683Z,77.95
2018-12-15T20:21:52.968Z,77.89
2018-12-15T20:24:21.234Z,78.29
2018-12-15T20:26:49.626Z,77.62
2018-12-15T20:29:17.892Z,77.27
2018-12-15T20:31:46.187Z,78.14
2018-12-15T20:34:14.464Z,77.50
2018-12-15T20:36:42.756Z,78.17
2018-12-15T20:39:11.037Z,78.03
2018-12-15T20:41:39.318Z,78.10
2018-12-15T20:44:07.675Z,77.30
2018-12-15T20:46:35.936Z,78.30
2018-12-15T20:49:04.274Z,78.04
2018-12-15T20:51:32.554Z,78.53
2018-12-15T20:54:00.874Z,78.03
2018-12-15T20:56:29.161Z,78.51
2018-12-15T20:58:57.441Z,78.91
2018-12-15T21:01:26.022Z,78.54
2018-12-15T21:03:54.299Z,78.62
2018-12-15T21:06:22.590Z,77.49
2018-12-15T21:08:50.864Z,77.88
2018-12-15T21:11:24.165Z,77.24
2018-12-15T21:13:49.515Z,78.18
2018-12-15T21:16:17.798Z,78.42
2018-12-15T21:18:46.153Z,77.56
2018-12-15T21:21:14.455Z,78.55
2018-12-15T21:23:42.812Z,77.43
2018-12-15T21:26:11.117Z,78.38
2018-12-15T21:28:39.458Z,78.39
2018-12-15T21:31:07.740Z,77.93
2018-12-15T21:33:36.014Z,78.40
2018-12-15T21:36:04.333Z,77.89
2018-12-15T21:38:32.602Z,78.31
2018-12-15T21:41:00.877Z,77.73
2018-12-15T21:43:29.164Z,78.59
2018-12-15T21:45:57.412Z,78.35
2018-12-15T21:48:25.685Z,78.30
2018-12-15T21:50:53.991Z,77.94
2018-12-15T21:53:22.266Z,78.82
2018-12-15T21:55:50.532Z,78.54
2018-12-15T21:58:18.798Z,77.85
2018-12-15T22:00:47.051Z,78.48
2018-12-15T22:03:15.328Z,78.69
2018-12-15T22:05:43.588Z,79.03
2018-12-15T22:08:11.846Z,79.02
2018-12-15T22:10:40.124Z,79.14
2018-12-15T22:13:08.388Z,78.12
2018-12-15T22:15:36.664Z,78.64
2018-12-15T22:18:05.019Z,77.97
2018-12-15T22:20:33.617Z,78.69
2018-12-15T22:23:01.911Z,79.39
2018-12-15T22:25:30.199Z,79.20
2018-12-15T22:27:58.441Z,79.24
2018-12-15T22:30:26.708Z,79.71
2018-12-15T22:32:54.992Z,79.60
2018-12-15T22:35:23.246Z,80.04
2018-12-15T22:37:51.529Z,78.90
2018-12-15T22:40:19.779Z,79.10
2018-12-15T22:42:48.069Z,78.57
2018-12-15T22:45:16.333Z,79.67
2018-12-15T22:47:44.671Z,79.30
2018-12-15T22:50:13.004Z,79.57
2018-12-15T22:52:41.267Z,79.57
2018-12-15T22:55:09.592Z,79.02
2018-12-15T22:57:37.854Z,79.88
2018-12-15T23:00:09.323Z,79.51
2018-12-15T23:02:37.707Z,79.74
2018-12-15T23:05:06.765Z,80.28
2018-12-15T23:07:35.111Z,79.82
2018-12-15T23:10:05.058Z,79.40
2018-12-15T23:12:33.512Z,80.04
2018-12-15T23:15:01.828Z,79.46
2018-12-15T23:17:30.164Z,79.44
2018-12-15T23:19:58.492Z,80.25
2018-12-15T23:22:26.838Z,79.52
2018-12-15T23:24:55.188Z,80.49
2018-12-15T23:27:23.575Z,79.37
2018-12-15T23:29:51.853Z,80.25
2018-12-15T23:32:20.188Z,80.09
2018-12-15T23:34:48.463Z,79.86
2018-12-15T23:37:16.744Z,80.13
2018-12-15T23:39:45.038Z,79.41
2018-12-15T23:42:13.301Z,80.20
2018-12-15T23:44:41.668Z,80.29
2018-12-15T23:47:09.943Z,79.61
2018-12-15T23:49:38.212Z,80.14
2018-12-15T23:52:06.467Z,80.51
2018-12-15T23:54:34.724Z,80.88
2018-12-15T23:57:03.112Z,80.60
2018-12-15T23:59:31.525Z,81.05
